Time;durP1;ratioP1;P1;durP2;ratioP2;P2;SDS_P1;SDS_P2;PMS_P1;PMS_P2;Temp;Humidity;BMP_temperature;BMP_pressure;BME280_temperature;BME280_humidity;BME280_pressure;Samples;Min_cycle;Max_cycle;Signal;HPM_P1;HPM_P2
2022/05/26 00:04:46;;;;;;;1.13;0.80;;;18.60;52.20;;;18.92;38.42;99116.38;4900178;28;125117;-90
2022/05/26 00:10:56;;;;;;;1.10;0.90;;;18.50;52.50;;;18.80;38.69;99108.06;4902763;28;115330;-92
2022/05/26 00:17:04;;;;;;;1.63;0.90;;;18.30;52.80;;;18.62;39.16;99118.75;5232205;23;125103;-90
2022/05/26 00:19:32;;;;;;;1.70;1.00;;;18.20;53.00;;;18.58;39.33;99122.63;4888551;28;119947;-90
2022/05/26 00:25:41;;;;;;;1.33;1.03;;;18.20;53.40;;;18.45;39.65;99125.47;4922012;28;115867;-87
2022/05/26 00:31:49;;;;;;;8.90;6.67;;;18.10;53.70;;;18.43;39.66;99121.41;4902987;28;124866;-86
2022/05/26 00:37:57;;;;;;;3.40;2.43;;;18.00;54.00;;;18.40;40.03;99134.13;4903299;28;114953;-78
2022/05/26 00:44:07;;;;;;;1.60;1.23;;;18.00;54.20;;;18.43;39.83;99122.25;4902696;28;124837;-83
2022/05/26 00:50:28;;;;;;;2.10;1.07;;;18.00;54.40;;;18.38;40.00;99119.69;4922117;28;116196;-85
2022/05/26 00:57:30;;;;;;;0.97;0.87;;;18.00;54.60;;;18.37;40.22;99111.66;4921563;28;124746;-86
2022/05/26 01:04:01;;;;;;;1.10;0.80;;;17.90;54.80;;;18.30;40.18;99118.69;4922792;28;115037;-84
2022/05/26 01:10:13;;;;;;;2.33;0.97;;;17.90;55.00;;;18.23;40.64;99112.88;4928034;28;124742;-88
2022/05/26 01:16:42;;;;;;;1.53;1.10;;;17.80;55.30;;;18.20;40.69;99110.00;4910807;28;115032;-86
2022/05/26 01:22:56;;;;;;;0.90;0.80;;;17.80;55.50;;;18.14;40.84;99108.63;4908615;28;124770;-78
2022/05/26 01:30:10;;;;;;;1.00;0.90;;;17.70;55.60;;;18.07;41.04;99110.03;4907793;28;116059;-89
2022/05/26 01:33:32;;;;;;;2.40;0.93;;;17.70;55.70;;;18.08;40.98;99099.66;4832579;29;121979;-81
2022/05/26 01:40:36;;;;;;;1.27;1.13;;;17.60;55.70;;;18.04;41.06;99104.34;4851269;29;115377;-84
2022/05/26 01:46:47;;;;;;;1.00;0.80;;;17.60;55.80;;;18.05;40.96;99111.53;4842230;29;126358;-91
2022/05/26 01:53:33;;;;;;;1.10;0.90;;;17.60;55.80;;;18.04;40.83;99105.16;4850945;29;116785;-90
2022/05/26 01:56:24;;;;;;;1.00;0.90;;;17.60;55.80;;;18.05;40.88;99117.97;4850689;29;114867;-84
2022/05/26 02:02:38;;;;;;;0.90;0.77;;;17.60;55.80;;;18.09;40.87;99112.47;4850527;29;124801;-84
2022/05/26 02:09:02;;;;;;;2.30;0.87;;;17.60;55.80;;;18.05;40.83;99123.56;4876105;28;114963;-84
2022/05/26 02:24:43;;;;;;;1.23;0.80;;;17.60;56.00;;;18.00;40.96;99120.19;4923471;28;125257;-84
2022/05/26 02:30:53;;;;;;;1.10;1.00;;;17.50;56.00;;;17.93;40.95;99122.78;4923625;28;116239;-89
2022/05/26 02:37:03;;;;;;;1.93;1.00;;;18.70;57.20;;;17.86;41.11;99114.97;4904740;28;125110;-79
2022/05/26 02:40:08;;;;;;;2.80;0.90;;;17.30;56.20;;;17.84;41.15;99120.94;4904402;28;124698;-89
2022/05/26 02:47:00;;;;;;;1.10;0.93;;;17.40;56.30;;;17.76;41.51;99116.28;4904781;28;115002;-83
2022/05/26 02:53:41;;;;;;;3.30;1.27;;;17.30;56.50;;;17.68;41.69;99131.19;4904784;28;124742;-89
2022/05/26 02:56:37;;;;;;;0.90;0.77;;;17.30;56.60;;;17.69;41.71;99123.63;4885409;28;114934;-85
2022/05/26 03:03:00;;;;;;;1.10;0.80;;;17.20;56.90;;;17.61;41.85;99120.59;4903817;28;124988;-83
2022/05/26 03:09:10;;;;;;;0.93;0.83;;;17.20;57.20;;;17.56;42.35;99131.19;4904706;28;115405;-82
2022/05/26 03:11:57;;;;;;;1.00;0.90;;;17.10;57.40;;;17.54;42.40;99130.72;4887961;28;114044;-91
2022/05/26 03:18:06;;;;;;;0.97;0.80;;;17.10;57.60;;;17.43;42.46;99136.78;4885081;29;124190;-81
2022/05/26 03:20:33;;;;;;;1.20;0.90;;;17.00;57.70;;;17.41;42.75;99125.16;4866477;28;112553;-89
2022/05/26 03:26:42;;;;;;;2.30;1.00;;;16.90;57.80;;;17.38;42.67;99133.41;4884712;28;125076;-91
2022/05/26 03:32:50;;;;;;;2.50;1.07;;;16.90;58.10;;;17.31;42.72;99138.78;4903708;28;116270;-91
2022/05/26 03:45:26;;;;;;;1.00;0.90;;;16.70;58.50;;;17.21;43.16;99140.84;4904172;28;115323;-81
2022/05/26 03:51:35;;;;;;;1.30;0.90;;;16.80;58.90;;;17.17;43.44;99150.31;4903810;28;125203;-80
2022/05/26 03:57:43;;;;;;;0.90;0.80;;;16.70;59.00;;;17.19;43.20;99153.53;4903949;28;115302;-83
2022/05/26 04:03:52;;;;;;;1.13;0.90;;;16.80;59.40;;;17.29;43.34;99157.88;4902646;28;125044;-81
2022/05/26 04:10:06;;;;;;;2.10;1.00;;;16.80;59.40;;;17.20;43.46;99174.75;4903921;28;115283;-84
2022/05/26 04:16:15;;;;;;;1.67;1.00;;;16.80;59.50;;;17.18;43.67;99174.25;4903418;28;124956;-83
2022/05/26 04:22:45;;;;;;;2.07;1.03;;;16.70;59.60;;;17.13;43.69;99192.03;4899501;28;115027;-92
2022/05/26 04:25:33;;;;;;;5.53;0.90;;;16.70;59.70;;;17.11;43.81;99188.78;4883797;28;113416;-92
2022/05/26 04:31:41;;;;;;;1.10;1.00;;;16.70;60.00;;;17.09;44.00;99195.91;4882706;28;124807;-89
2022/05/26 04:37:50;;;;;;;1.20;0.90;;;16.70;60.40;;;17.10;44.23;99197.53;4883556;29;115868;-87
2022/05/26 04:41:00;;;;;;;1.53;0.90;;;16.70;60.60;;;17.11;44.46;99205.53;4866353;28;124007;-91
2022/05/26 04:50:52;;;;;;;1.10;1.00;;;16.70;61.20;;;17.07;44.86;99218.56;4883610;28;115032;-86
2022/05/26 04:57:01;;;;;;;1.53;1.10;;;16.70;61.40;;;17.14;44.78;99213.25;4883668;28;124769;-88
2022/05/26 04:59:29;;;;;;;1.10;0.83;;;16.70;61.70;;;17.18;44.86;99208.56;4883748;28;115270;-93
2022/05/26 05:05:58;;;;;;;1.00;0.90;;;16.80;61.70;;;17.21;44.63;99219.06;4882540;28;125184;-89
2022/05/26 05:09:04;;;;;;;2.07;1.00;;;16.80;61.70;;;17.22;44.65;99215.13;4883126;28;124482;-92
2022/05/26 05:15:36;;;;;;;1.23;1.10;;;16.80;61.70;;;17.27;44.75;99227.22;4883943;28;114874;-87
2022/05/26 05:25:34;;;;;;;0.90;0.80;;;16.90;62.10;;;17.35;44.89;99229.88;4882176;29;115266;-92
2022/05/26 05:28:25;;;;;;;1.60;0.90;;;17.00;62.20;;;17.43;44.81;99228.16;4869979;28;114722;-91
2022/05/26 05:31:36;;;;;;;1.37;1.00;;;17.00;62.40;;;17.50;44.69;99228.41;4892861;28;124887;-90
2022/05/26 05:35:08;;;;;;;1.10;0.80;;;17.00;62.50;;;17.58;44.81;99227.47;4878856;28;122767;-89
2022/05/26 05:37:40;;;;;;;1.10;0.90;;;17.10;62.50;;;17.69;44.58;99241.00;4895935;28;114452;-89
2022/05/26 05:40:28;;;;;;;2.07;1.20;;;17.10;62.50;;;17.77;44.76;99245.66;4861933;28;114711;-90
2022/05/26 05:43:14;;;;;;;2.80;1.10;;;17.20;62.40;;;17.84;44.38;99252.31;4881559;28;123590;-90
2022/05/26 05:46:53;;;;;;;1.13;0.90;;;17.30;62.40;;;17.90;44.28;99243.69;4829734;28;122154;-90
2022/05/26 05:53:02;;;;;;;1.73;1.00;;;17.40;62.10;;;18.04;44.14;99252.53;4877723;28;114968;-90
2022/05/26 05:59:14;;;;;;;2.83;1.10;;;17.60;61.90;;;18.12;44.10;99243.19;4875367;29;124921;-90
2022/05/26 06:02:18;;;;;;;2.43;1.23;;;17.60;61.80;;;18.14;43.86;99246.47;4858702;28;113753;-90
2022/05/26 06:04:56;;;;;;;1.27;0.93;;;17.70;61.80;;;18.19;43.68;99256.56;4875696;28;114049;-90
2022/05/26 06:08:01;;;;;;;1.13;0.93;;;17.70;61.70;;;18.20;43.91;99241.44;4898875;28;124505;-90
2022/05/26 06:10:30;;;;;;;1.90;1.10;;;17.80;61.80;;;18.23;43.67;99257.50;4879597;29;123157;-90
2022/05/26 06:13:02;;;;;;;1.30;1.00;;;17.80;61.70;;;18.25;43.72;99255.19;4879509;28;114198;-90
2022/05/26 06:15:32;;;;;;;3.00;1.00;;;17.80;61.70;;;18.27;43.79;99259.25;4874023;28;112757;-89
2022/05/26 06:18:01;;;;;;;2.80;1.10;;;17.80;61.50;;;18.29;44.20;99262.50;4856513;28;123742;-91
2022/05/26 06:20:36;;;;;;;1.97;0.93;;;17.80;61.50;;;18.31;43.67;99264.97;4874863;28;123161;-90
2022/05/26 06:24:03;;;;;;;1.27;1.07;;;17.90;61.60;;;18.28;43.64;99285.25;4851468;29;113474;-89
2022/05/26 06:37:52;;;;;;;1.73;1.00;;;17.80;61.80;;;18.28;43.93;99286.06;4881704;29;116475;-87
2022/05/26 06:44:57;;;;;;;1.10;0.90;;;17.90;62.00;;;18.33;43.87;99279.41;4883164;28;124431;-89
2022/05/26 06:47:26;;;;;;;1.20;1.10;;;17.90;62.10;;;18.39;44.10;99286.38;4885826;28;121895;-91
2022/05/26 06:49:55;;;;;;;1.27;1.00;;;17.90;62.10;;;18.43;43.82;99289.28;4865239;28;113488;-91
2022/05/26 06:52:24;;;;;;;1.57;1.13;;;17.90;62.20;;;18.49;43.78;99294.28;4833075;29;112927;-91
2022/05/26 06:54:56;;;;;;;1.00;0.80;;;18.00;62.20;;;18.51;43.74;99279.94;4830945;29;122399;-91
2022/05/26 06:57:22;;;;;;;1.80;1.20;;;18.00;62.20;;;18.59;43.89;99289.38;4818166;29;122417;-92
2022/05/26 06:59:49;;;;;;;1.23;1.10;;;18.10;62.40;;;18.62;43.79;99292.28;4835785;29;114219;-90
2022/05/26 07:02:18;;;;;;;2.20;1.00;;;18.10;62.40;;;18.68;43.75;99295.66;4849108;29;112045;-91
2022/05/26 07:08:26;;;;;;;2.20;1.40;;;18.20;62.60;;;18.67;43.83;99299.59;4847840;29;124019;-90
2022/05/26 07:11:48;;;;;;;1.53;0.83;;;18.20;62.50;;;18.64;43.86;99300.31;4831424;29;112533;-89
2022/05/26 07:14:17;;;;;;;1.20;1.00;;;18.20;62.50;;;18.68;43.92;99301.25;4829613;29;113628;-89
2022/05/26 07:16:45;;;;;;;1.57;1.00;;;18.20;62.50;;;18.73;43.81;99298.19;4827249;29;123336;-90
2022/05/26 07:19:17;;;;;;;1.93;1.27;;;18.20;62.40;;;18.82;43.75;99312.09;4812110;29;122085;-91
2022/05/26 07:21:46;;;;;;;2.40;1.27;;;18.30;62.50;;;18.89;43.50;99318.72;4826584;29;114404;-91
2022/05/26 07:24:28;;;;;;;2.13;1.00;;;18.30;63.10;;;18.94;43.27;99314.81;4835774;29;112442;-93
2022/05/26 07:26:56;;;;;;;1.90;1.10;;;18.50;62.20;;;18.98;43.17;99315.75;4834699;29;123443;-91
2022/05/26 07:29:24;;;;;;;1.73;0.93;;;18.50;61.90;;;19.02;42.93;99315.84;4828820;29;123862;-89
2022/05/26 07:31:51;;;;;;;0.90;0.80;;;18.50;61.70;;;19.07;43.00;99318.41;4830927;28;115352;-91
2022/05/26 07:34:21;;;;;;;1.40;0.97;;;18.60;61.90;;;19.12;42.82;99309.75;4865092;28;115119;-91
2022/05/26 07:45:59;;;;;;;1.00;0.90;;;18.70;60.70;;;19.23;41.99;99318.44;4842113;29;113927;-89
2022/05/26 07:48:25;;;;;;;1.77;0.90;;;18.70;60.50;;;19.28;42.11;99319.00;4837104;29;123728;-91
2022/05/26 07:51:30;;;;;;;1.10;0.90;;;18.80;61.10;;;19.31;41.67;99323.88;4834621;29;122790;-90
2022/05/26 07:54:17;;;;;;;4.33;1.50;;;18.90;60.10;;;19.35;41.60;99324.00;4830144;29;113431;-91
2022/05/26 07:56:46;;;;;;;2.60;1.33;;;20.90;61.70;;;19.38;41.68;99338.09;4821917;29;112620;-90
2022/05/26 07:59:14;;;;;;;3.20;2.47;;;18.90;59.60;;;19.41;41.51;99328.97;4835086;29;123300;-91
2022/05/26 08:01:42;;;;;;;3.07;2.10;;;19.00;59.70;;;19.49;41.59;99329.97;4821100;29;122158;-91
2022/05/26 08:04:11;;;;;;;3.60;1.40;;;19.00;59.80;;;19.54;41.45;99331.72;4787548;29;113194;-91
2022/05/26 08:06:39;;;;;;;1.63;1.13;;;19.00;59.60;;;19.59;41.45;99335.06;4814529;29;111994;-91
2022/05/26 08:13:06;;;;;;;1.33;1.20;;;19.10;59.70;;;19.66;41.24;99340.06;4848793;29;124192;-91
2022/05/26 08:16:12;;;;;;;4.00;1.10;;;19.20;59.50;;;19.65;41.00;99342.03;4819732;29;114219;-92
2022/05/26 08:18:58;;;;;;;1.57;1.17;;;19.20;59.30;;;19.66;41.17;99340.06;4829253;29;113688;-91
2022/05/26 08:21:28;;;;;;;2.03;1.10;;;19.20;59.30;;;19.68;41.13;99342.50;4831306;29;124350;-90
2022/05/26 08:23:56;;;;;;;1.60;1.10;;;19.30;59.40;;;19.70;41.18;99345.78;4818840;29;121726;-90
2022/05/26 08:26:22;;;;;;;1.10;0.90;;;19.30;59.30;;;19.67;40.87;99352.91;4809267;29;114129;-91
2022/05/26 08:28:49;;;;;;;1.77;1.00;;;19.20;59.00;;;19.65;41.13;99350.44;4813395;29;114065;-91
2022/05/26 08:31:55;;;;;;;2.60;1.10;;;19.20;59.00;;;;;;4807266;29;123587;-93
2022/05/26 08:34:24;;;;;;;3.83;1.00;;;19.20;59.20;;;19.66;41.19;99356.88;4803027;29;123267;-92
2022/05/26 08:37:20;;;;;;;0.93;0.83;;;19.20;59.30;;;19.70;41.39;99352.19;4796788;29;113545;-91
2022/05/26 08:39:47;;;;;;;1.00;0.80;;;19.30;59.50;;;19.76;41.27;99361.16;4810286;29;112252;-90
2022/05/26 08:42:49;;;;;;;1.40;0.80;;;19.30;59.50;;;19.76;41.23;99356.34;4830056;29;122709;-91
2022/05/26 08:45:17;;;;;;;2.50;1.00;;;19.30;59.50;;;19.76;41.23;99361.97;4826462;29;121573;-91
2022/05/26 08:47:47;;;;;;;2.40;1.10;;;19.30;59.50;;;19.80;41.41;99357.28;4811955;29;112411;-91
2022/05/26 08:50:16;;;;;;;1.20;0.90;;;19.30;59.60;;;19.86;41.39;99364.25;4811266;29;111769;-91
2022/05/26 08:53:02;;;;;;;1.10;0.93;;;19.40;59.70;;;19.90;41.15;99350.28;4822542;29;123501;-91
2022/05/26 08:55:45;;;;;;;2.00;1.00;;;19.40;59.70;;;19.93;41.13;99354.38;4808920;29;123481;-92
2022/05/26 08:58:18;;;;;;;2.27;0.90;;;19.40;59.60;;;19.97;41.16;99361.72;4823774;29;112125;-92
2022/05/26 09:01:06;;;;;;;1.50;1.20;;;19.50;59.70;;;19.99;40.84;99381.00;4804008;29;113129;-90
2022/05/26 09:03:35;;;;;;;2.70;1.13;;;19.50;59.50;;;20.01;40.98;99361.78;4839555;29;124268;-92
2022/05/26 09:06:14;;;;;;;1.40;0.97;;;19.60;59.50;;;20.05;40.97;99359.91;4861087;28;122281;-91
2022/05/26 09:14:39;;;;;;;1.37;0.90;;;19.70;59.60;;;20.30;40.52;99371.72;4867533;28;123407;-92
2022/05/26 09:17:13;;;;;;;1.60;1.20;;;19.80;59.40;;;20.33;40.83;99367.38;4863684;28;124061;-91
2022/05/26 09:20:02;;;;;;;1.30;1.00;;;19.80;59.40;;;20.40;40.51;99361.97;4872369;28;114573;-91
2022/05/26 09:22:48;;;;;;;1.43;0.90;;;19.90;59.30;;;20.48;40.57;99363.75;4873721;28;115637;-93
2022/05/26 09:25:40;;;;;;;1.33;0.80;;;19.90;59.20;;;20.55;40.49;99363.13;4871965;28;124539;-92
2022/05/26 09:29:04;;;;;;;1.00;0.83;;;20.00;59.20;;;20.61;40.42;99361.69;4861830;28;122966;-90
2022/05/26 09:31:50;;;;;;;1.00;0.90;;;20.10;59.20;;;20.69;40.49;99363.47;4859617;28;112761;-91
2022/05/26 09:34:25;;;;;;;1.30;1.10;;;20.10;59.00;;;20.69;40.20;99371.88;4848601;29;112307;-91
2022/05/26 09:37:02;;;;;;;1.80;1.00;;;20.20;58.70;;;20.66;40.01;99375.41;4874169;28;124784;-91
2022/05/26 09:39:37;;;;;;;2.00;1.00;;;20.20;58.50;;;20.62;40.15;99380.16;4874857;28;123903;-93
2022/05/26 09:42:28;;;;;;;3.83;1.10;;;20.20;58.30;;;20.53;40.03;99385.94;4872741;28;112797;-91
2022/05/26 09:45:06;;;;;;;2.03;1.00;;;20.10;58.20;;;20.47;40.22;99387.38;4863595;28;114163;-91
2022/05/26 09:47:44;;;;;;;1.13;0.80;;;20.10;58.30;;;20.43;40.28;99383.69;4864607;28;124091;-91
2022/05/26 09:50:42;;;;;;;1.53;1.00;;;20.10;58.50;;;20.38;40.50;99398.00;4855875;28;124191;-92
2022/05/26 09:53:11;;;;;;;0.90;0.70;;;20.00;58.60;;;20.33;40.47;99392.66;4875895;28;114334;-90
2022/05/26 09:55:50;;;;;;;1.17;0.93;;;19.90;58.70;;;20.36;40.72;99386.31;4858459;28;114162;-91
2022/05/26 09:58:34;;;;;;;2.63;1.10;;;19.90;58.90;;;20.38;40.49;99381.94;4871491;28;124104;-91
2022/05/26 10:01:26;;;;;;;3.10;1.10;;;20.00;59.10;;;20.40;40.81;99390.03;4874968;28;122846;-93
2022/05/26 10:04:21;;;;;;;1.20;0.90;;;20.00;59.20;;;20.37;40.63;99394.38;4878716;28;113160;-90
2022/05/26 10:07:28;;;;;;;1.33;1.00;;;20.00;59.20;;;20.35;40.78;99393.91;4863483;28;114119;-93
2022/05/26 10:10:41;;;;;;;1.73;1.00;;;20.00;59.30;;;20.33;40.82;99393.44;4886867;28;123787;-91
2022/05/26 10:14:04;;;;;;;1.53;0.90;;;20.00;59.20;;;20.27;40.96;99398.53;4856077;28;125707;-92
2022/05/26 10:17:29;;;;;;;1.00;0.90;;;19.90;59.00;;;20.33;40.66;99398.25;4828008;28;115048;-90
2022/05/26 10:20:26;;;;;;;1.23;1.00;;;19.90;59.20;;;20.41;40.79;99397.25;4834474;29;114137;-90
2022/05/26 10:23:04;;;;;;;1.10;1.00;;;19.90;59.20;;;20.44;40.54;99397.31;4851036;28;123396;-89
2022/05/26 10:25:43;;;;;;;1.20;1.00;;;19.90;59.20;;;20.50;40.43;99383.84;4875501;28;123895;-90
2022/05/26 10:28:53;;;;;;;1.03;0.83;;;20.00;59.30;;;20.53;40.82;99394.34;4865942;28;113652;-90
2022/05/26 10:31:50;;;;;;;1.00;0.80;;;20.00;59.30;;;20.63;40.82;99398.59;4874606;28;114048;-90
2022/05/26 10:34:44;;;;;;;1.00;0.80;;;20.10;59.30;;;20.70;40.67;99393.16;4876238;28;124050;-88
2022/05/26 10:37:47;;;;;;;1.90;0.90;;;20.10;59.30;;;20.76;40.33;99388.06;4873705;28;124086;-91
2022/05/26 10:40:46;;;;;;;0.87;0.80;;;20.20;59.30;;;20.78;40.55;99394.16;4857792;28;114186;-92
2022/05/26 10:43:51;;;;;;;0.90;0.80;;;20.30;59.20;;;20.81;40.46;99387.78;4835020;28;114022;-91
2022/05/26 10:46:43;;;;;;;1.20;0.93;;;20.30;59.20;;;20.83;40.04;99391.06;4835976;29;124080;-92
2022/05/26 10:49:38;;;;;;;2.17;1.20;;;20.30;59.00;;;20.81;40.38;99399.84;4856201;28;123989;-91
2022/05/26 10:52:20;;;;;;;1.77;1.10;;;20.30;58.90;;;20.80;40.16;99397.41;4875199;28;114386;-90
2022/05/26 10:55:00;;;;;;;2.00;1.20;;;20.30;58.90;;;20.76;40.19;99396.50;4875682;28;114626;-90
2022/05/26 10:57:38;;;;;;;1.57;0.87;;;20.30;58.80;;;20.70;39.99;99401.59;4872801;28;123598;-90
2022/05/26 11:00:14;;;;;;;1.30;0.90;;;20.30;58.50;;;20.63;40.29;99399.44;4855509;28;123154;-91
2022/05/26 11:03:22;;;;;;;1.90;1.00;;;20.20;58.40;;;20.56;40.01;99399.25;4862563;28;114323;-91
2022/05/26 11:05:55;;;;;;;1.00;0.90;;;20.20;58.40;;;20.53;40.33;99388.75;4856021;28;114302;-90
2022/05/26 11:08:33;;;;;;;1.10;0.90;;;20.10;58.40;;;20.50;40.21;99390.28;4873769;28;124347;-90
2022/05/26 11:11:28;;;;;;;1.97;1.10;;;20.10;58.60;;;20.53;40.28;99385.94;4859365;28;123131;-91
2022/05/26 11:17:21;;;;;;;1.53;0.93;;;20.10;58.60;;;20.58;40.45;99393.28;4875779;28;114377;-93
2022/05/26 11:17:36;;;;;;;1.50;1.00;;;20.10;58.70;;;20.64;40.40;99405.88;4874719;28;115108;-91
2022/05/26 11:20:14;;;;;;;2.67;1.00;;;20.10;59.40;;;20.68;40.38;99395.53;4874289;28;123272;-90
2022/05/26 11:22:45;;;;;;;1.90;1.10;;;20.20;58.90;;;20.71;40.04;99392.81;4874286;28;124026;-89
2022/05/26 11:25:15;;;;;;;1.10;0.90;;;20.20;58.90;;;20.74;40.08;99400.50;4873708;28;114384;-91
2022/05/26 11:27:59;;;;;;;1.67;1.00;;;20.20;58.90;;;20.79;40.16;99390.16;4876732;28;114047;-90
2022/05/26 11:37:16;;;;;;;2.20;1.07;;;20.30;59.00;;;20.86;40.28;99401.56;4858973;29;115193;-90
2022/05/26 11:40:38;;;;;;;1.40;1.00;;;20.40;59.00;;;20.86;40.39;99402.34;4855460;29;114132;-90
2022/05/26 11:43:07;;;;;;;1.00;0.83;;;20.40;59.00;;;20.88;40.71;99402.00;4888678;28;122421;-90
2022/05/26 11:45:47;;;;;;;1.70;0.90;;;20.40;59.10;;;20.93;40.23;99396.09;4880643;28;124488;-90
2022/05/26 11:48:32;;;;;;;1.43;0.90;;;20.40;59.20;;;20.94;40.39;99406.97;4884473;28;114149;-90
2022/05/26 11:51:18;;;;;;;1.70;0.90;;;20.50;59.10;;;20.92;40.13;99391.66;4874841;28;113974;-88
2022/05/26 11:53:46;;;;;;;1.67;1.20;;;20.40;58.90;;;20.92;40.03;99400.06;4873382;28;124084;-90
2022/05/26 11:56:28;;;;;;;1.73;1.20;;;20.40;59.00;;;20.92;40.04;99389.66;4872906;28;123043;-90
2022/05/26 11:59:31;;;;;;;3.67;1.20;;;20.40;59.00;;;20.91;40.28;99390.03;4873408;28;114289;-90
2022/05/26 12:02:07;;;;;;;1.37;1.00;;;20.50;59.10;;;20.95;40.46;99400.19;4866999;28;113271;-90
2022/05/26 12:04:39;;;;;;;1.17;0.93;;;20.50;59.30;;;21.00;40.42;99385.00;4863878;28;123985;-89
2022/05/26 12:07:35;;;;;;;2.27;1.10;;;20.50;59.10;;;20.98;40.07;99392.97;4862258;28;123811;-90
2022/05/26 12:10:20;;;;;;;1.40;1.10;;;20.50;58.90;;;20.93;40.09;99382.88;4863150;28;114314;-91
2022/05/26 12:12:47;;;;;;;1.20;0.90;;;20.50;58.90;;;20.88;40.53;99402.00;4873804;28;114952;-91
2022/05/26 12:15:24;;;;;;;1.80;1.20;;;20.50;59.00;;;20.84;40.57;99403.91;4842628;28;123792;-88
2022/05/26 12:17:55;;;;;;;1.10;1.00;;;20.40;58.90;;;20.83;40.70;99402.28;4859631;28;122022;-92
2022/05/26 12:20:23;;;;;;;1.23;1.10;;;20.40;59.00;;;20.86;40.44;99395.94;4874676;28;114321;-91
2022/05/26 12:22:50;;;;;;;2.30;1.37;;;20.40;59.10;;;20.90;40.38;99391.19;4875791;28;114261;-92
2022/05/26 12:25:33;;;;;;;1.93;0.97;;;20.40;59.30;;;20.88;40.69;99399.19;4872552;28;124150;-90
2022/05/26 12:28:14;;;;;;;1.10;0.90;;;20.40;59.40;;;20.88;40.68;99404.81;4857824;28;124482;-91
2022/05/26 12:30:44;;;;;;;1.47;1.10;;;20.40;59.50;;;20.87;41.16;99403.97;4870496;28;114356;-92
2022/05/26 12:34:15;;;;;;;1.63;1.03;;;20.40;59.70;;;20.83;41.01;99397.47;4871452;28;114394;-91
2022/05/26 12:36:54;;;;;;;1.83;1.13;;;20.40;59.90;;;20.86;41.35;99390.31;4803640;29;123305;-89
2022/05/26 12:40:04;;;;;;;2.57;1.17;;;20.40;60.20;;;20.86;41.50;99390.31;4796706;29;124917;-93
2022/05/26 12:43:30;;;;;;;1.63;1.03;;;20.40;60.60;;;20.86;41.35;99384.69;4808824;29;114457;-90
2022/05/26 12:46:39;;;;;;;1.70;1.17;;;20.40;60.70;;;20.88;41.68;99387.97;4796444;29;114238;-91
2022/05/26 12:49:39;;;;;;;2.00;1.10;;;20.40;60.80;;;20.98;41.83;99387.34;4800692;29;123277;-90
2022/05/26 12:52:42;;;;;;;1.40;1.00;;;20.50;61.10;;;21.09;41.38;99385.63;4801798;29;124564;-91
2022/05/26 12:55:25;;;;;;;1.30;1.03;;;20.50;61.40;;;21.15;41.49;99392.56;4797367;29;114079;-90
2022/05/26 12:58:04;;;;;;;1.27;1.17;;;20.60;61.20;;;21.19;41.15;99385.00;4794664;29;114490;-90
2022/05/26 13:00:42;;;;;;;1.30;1.03;;;20.60;60.80;;;21.19;41.26;99393.44;4809736;29;124076;-93
2022/05/26 13:03:36;;;;;;;1.70;1.10;;;20.70;60.50;;;21.13;40.98;99375.25;4808022;29;123081;-91
2022/05/26 13:06:07;;;;;;;1.53;0.90;;;22.50;62.00;;;21.12;41.27;99372.81;4791142;29;114334;-91
2022/05/26 13:09:01;;;;;;;1.70;1.10;;;20.70;60.50;;;21.13;41.21;99369.63;4863912;28;114698;-90
2022/05/26 13:11:35;;;;;;;1.30;0.80;;;20.70;60.60;;;21.17;41.28;99376.16;4870793;28;123946;-92
2022/05/26 13:14:08;;;;;;;1.27;1.17;;;20.70;60.60;;;21.23;41.47;99370.25;4873306;28;123129;-92
2022/05/26 13:16:37;;;;;;;3.13;1.37;;;20.70;60.60;;;21.25;41.09;99370.66;4873497;28;112586;-90
2022/05/26 13:19:19;;;;;;;1.33;1.17;;;20.80;60.80;;;21.27;41.28;99376.72;4873901;28;114158;-92
2022/05/26 13:21:52;;;;;;;1.47;1.23;;;20.80;60.90;;;21.25;41.27;99376.28;4872077;28;124350;-90
2022/05/26 13:24:30;;;;;;;2.23;1.10;;;20.80;60.90;;;21.23;41.67;99381.47;4863646;28;124039;-91
2022/05/26 13:27:10;;;;;;;1.50;1.00;;;20.80;61.00;;;21.20;41.34;99385.84;4873019;28;114417;-91
2022/05/26 13:29:44;;;;;;;2.10;1.37;;;20.80;61.20;;;21.14;41.89;99374.09;4842377;28;114022;-90
2022/05/26 13:35:19;;;;;;;1.27;0.93;;;20.70;61.30;;;21.06;42.10;99383.53;4874501;28;124469;-91
2022/05/26 13:37:46;;;;;;;2.07;1.30;;;20.60;61.40;;;21.05;41.80;99384.72;4871105;28;114286;-91
2022/05/26 13:40:28;;;;;;;1.97;1.00;;;20.60;61.50;;;21.03;42.23;99383.44;4857856;28;113072;-92
2022/05/26 13:42:55;;;;;;;1.63;1.00;;;20.60;61.60;;;21.03;42.12;99377.84;4852816;29;124086;-92
2022/05/26 13:45:31;;;;;;;1.33;1.10;;;20.60;61.70;;;21.05;41.96;99370.66;4864655;28;123849;-92
2022/05/26 13:48:21;;;;;;;1.83;1.20;;;20.60;61.80;;;21.08;42.34;99377.53;4853977;28;114277;-91
2022/05/26 13:50:51;;;;;;;1.93;1.30;;;20.60;62.00;;;21.09;42.01;99382.81;4872153;28;113094;-91
2022/05/26 13:53:18;;;;;;;2.20;1.30;;;20.60;62.30;;;21.05;42.37;99362.25;4854360;28;123400;-93
2022/05/26 13:55:45;;;;;;;2.60;1.27;;;20.60;62.30;;;20.98;42.75;99359.25;4858539;28;123309;-90
2022/05/26 13:58:17;;;;;;;2.67;1.30;;;20.60;63.10;;;20.96;42.65;99358.84;4847854;28;114274;-91
2022/05/26 14:00:45;;;;;;;1.20;1.10;;;20.50;62.40;;;20.92;42.85;99361.56;4873814;28;114721;-90
2022/05/26 14:03:24;;;;;;;2.63;1.27;;;20.50;62.40;;;20.95;42.84;99368.44;4871599;28;123381;-92
2022/05/26 14:06:04;;;;;;;2.80;1.00;;;20.50;62.70;;;20.97;42.86;99360.47;4872276;28;122867;-92
2022/05/26 14:08:32;;;;;;;1.67;0.80;;;20.50;62.80;;;21.00;42.41;99351.28;4853670;29;113791;-91
2022/05/26 14:10:59;;;;;;;1.00;0.87;;;20.50;62.80;;;21.07;42.50;99350.63;4853783;28;114069;-91
2022/05/26 14:13:35;;;;;;;1.50;1.00;;;20.60;63.00;;;21.15;42.70;99347.59;4873198;28;124258;-92
2022/05/26 14:16:05;;;;;;;1.30;1.10;;;19.50;61.90;;;21.24;42.33;99343.75;4860030;28;124290;-91
2022/05/26 14:18:31;;;;;;;1.30;1.00;;;20.60;63.10;;;21.24;42.11;99340.94;4873856;28;113430;-92
2022/05/26 14:21:29;;;;;;;1.30;1.10;;;20.70;62.60;;;21.24;42.20;99341.75;4874659;28;113014;-92
2022/05/26 14:24:09;;;;;;;1.20;1.10;;;20.70;62.40;;;21.31;41.97;99338.28;4836177;29;123931;-91
2022/05/26 14:26:44;;;;;;;1.33;0.90;;;20.80;62.40;;;21.35;42.33;99339.16;4838193;29;123856;-91
2022/05/26 14:29:16;;;;;;;1.30;1.20;;;20.80;62.40;;;21.45;42.13;99335.75;4845302;29;114241;-91
2022/05/26 14:32:09;;;;;;;2.60;1.20;;;20.90;62.50;;;21.53;41.79;99340.34;4848030;29;113299;-90
2022/05/26 14:34:40;;;;;;;1.27;1.00;;;21.00;62.40;;;21.58;41.59;99320.34;4854613;29;124219;-91
2022/05/26 14:37:08;;;;;;;1.10;0.93;;;21.00;62.20;;;21.70;41.68;99332.59;4854561;29;123782;-91
2022/05/26 14:39:37;;;;;;;2.57;1.50;;;21.10;62.10;;;21.80;41.36;99320.72;4848773;28;114036;-92
2022/05/26 14:42:06;;;;;;;2.83;1.00;;;21.20;61.90;;;21.91;41.23;99329.34;4838482;29;114095;-90
2022/05/26 14:44:35;;;;;;;2.67;1.10;;;21.30;61.70;;;21.97;40.69;99314.59;4819881;29;123835;-91
2022/05/26 14:47:02;;;;;;;1.90;1.07;;;21.40;61.30;;;21.98;40.85;99330.28;4837347;29;122820;-89
2022/05/26 14:49:29;;;;;;;2.50;1.27;;;21.40;60.90;;;22.07;40.25;99307.53;4854677;29;113106;-90
2022/05/26 14:51:56;;;;;;;1.37;1.00;;;21.50;60.70;;;22.24;40.27;99307.00;4837811;29;114971;-91
2022/05/26 14:57:16;;;;;;;1.53;1.03;;;21.80;60.90;;;22.73;39.83;99299.69;4856700;29;123833;-91
2022/05/26 14:59:42;;;;;;;1.63;1.00;;;22.00;60.80;;;22.88;39.46;99301.47;4837822;29;114448;-91
2022/05/26 15:02:09;;;;;;;2.70;1.13;;;22.10;60.30;;;22.99;38.64;99306.47;4854287;29;114167;-93
2022/05/26 15:04:37;;;;;;;3.10;1.00;;;22.30;59.20;;;22.98;38.59;99304.84;4854186;29;123384;-90
2022/05/26 15:07:04;;;;;;;1.23;0.90;;;22.40;59.00;;;23.03;38.38;99307.34;4853599;29;123584;-91
2022/05/26 15:09:32;;;;;;;1.37;1.00;;;22.40;58.80;;;23.16;38.64;99297.44;4854053;28;114316;-90
2022/05/26 15:12:02;;;;;;;2.00;1.20;;;22.50;58.60;;;23.21;38.06;99297.06;4855025;29;113817;-91